TimeCST,TemperatureF,Dew PointF,Humidity,Sea Level PressureIn,VisibilityMPH,Wind Direction,Wind SpeedMPH,Gust SpeedMPH,PrecipitationIn,Events,Conditions,WindDirDegrees,DateUTC
12:55 AM,15.1,3.9,61,30.22,10.0,North,17.3,27.6,N/A,,Overcast,10,2014-01-05 06:55:00
1:55 AM,12.0,-0.9,56,30.23,10.0,North,19.6,28.8,N/A,,Overcast,360,2014-01-05 07:55:00
2:55 AM,10.9,-2.0,56,30.26,10.0,North,19.6,26.5,N/A,,Overcast,360,2014-01-05 08:55:00
3:55 AM,10.0,-2.9,56,30.28,10.0,North,18.4,32.2,N/A,,Overcast,10,2014-01-05 09:55:00
4:55 AM,9.0,-2.0,61,30.29,10.0,North,16.1,-,N/A,,Mostly Cloudy,10,2014-01-05 10:55:00
5:55 AM,8.1,-4.0,58,30.32,10.0,North,16.1,25.3,N/A,,Partly Cloudy,360,2014-01-05 11:55:00
6:55 AM,6.1,-6.0,58,30.36,10.0,North,18.4,26.5,N/A,,Scattered Clouds,360,2014-01-05 12:55:00
7:55 AM,6.1,-6.0,58,30.38,10.0,North,18.4,27.6,N/A,,Clear,360,2014-01-05 13:55:00
8:55 AM,5.0,-6.0,61,30.41,10.0,North,20.7,-,N/A,,Clear,360,2014-01-05 14:55:00
9:55 AM,6.1,-9.9,48,30.44,10.0,North,21.9,29.9,N/A,,Clear,10,2014-01-05 15:55:00
10:55 AM,9.0,-6.0,51,30.47,10.0,North,21.9,27.6,N/A,,Mostly Cloudy,10,2014-01-05 16:55:00
11:55 AM,9.0,-5.1,53,30.46,10.0,North,17.3,28.8,N/A,,Overcast,360,2014-01-05 17:55:00
12:55 PM,12.0,-4.0,49,30.45,10.0,North,18.4,-,N/A,,Mostly Cloudy,10,2014-01-05 18:55:00
1:55 PM,12.9,-5.1,45,30.45,10.0,North,18.4,29.9,N/A,,Overcast,350,2014-01-05 19:55:00
2:55 PM,14.0,-4.0,45,30.48,10.0,North,16.1,27.6,N/A,,Mostly Cloudy,360,2014-01-05 20:55:00
3:55 PM,12.0,-4.0,49,30.52,10.0,North,20.7,25.3,N/A,,Mostly Cloudy,360,2014-01-05 21:55:00
4:55 PM,12.0,-2.9,51,30.55,10.0,North,17.3,26.5,N/A,,Overcast,350,2014-01-05 22:55:00
5:55 PM,9.0,-4.0,56,30.57,10.0,North,13.8,-,N/A,,Clear,360,2014-01-05 23:55:00
6:55 PM,7.0,-6.0,55,30.59,10.0,North,15.0,-,N/A,,Clear,350,2014-01-06 00:55:00
7:55 PM,6.1,-8.0,53,30.61,10.0,North,15.0,-,N/A,,Clear,350,2014-01-06 01:55:00
8:55 PM,3.0,-9.9,55,30.64,10.0,North,18.4,26.5,N/A,,Clear,350,2014-01-06 02:55:00
9:55 PM,-0.0,-13.0,54,30.66,10.0,North,13.8,23.0,N/A,,Clear,350,2014-01-06 03:55:00
10:55 PM,-2.0,-16.1,51,30.66,10.0,NNW,12.7,-,N/A,,Clear,330,2014-01-06 04:55:00
11:55 PM,-2.9,-17.0,51,30.65,10.0,NW,10.4,-,N/A,,Clear,320,2014-01-06 05:55:00